Time;durP1;ratioP1;P1;durP2;ratioP2;P2;SDS_P1;SDS_P2;PMS_P1;PMS_P2;Temp;Humidity;BMP_temperature;BMP_pressure;BME280_temperature;BME280_humidity;BME280_pressure;Samples;Min_cycle;Max_cycle;Signal;HPM_P1;HPM_P2
2023/09/14 00:01:00;;;;;;;2.25;2.05;;;23.40;99.90;;;;;;4939122;28;20205;-71
2023/09/14 00:03:26;;;;;;;2.50;2.30;;;23.40;99.90;;;;;;4955099;28;20189;-70
2023/09/14 00:05:52;;;;;;;2.63;2.42;;;23.40;99.90;;;;;;4943023;28;20721;-70
2023/09/14 00:08:19;;;;;;;2.50;2.30;;;23.40;99.90;;;;;;4958936;28;20200;-70
2023/09/14 00:10:46;;;;;;;2.60;2.40;;;23.40;99.90;;;;;;4966010;28;20224;-71
2023/09/14 00:13:12;;;;;;;3.05;2.03;;;23.40;99.90;;;;;;4954050;28;20202;-70
2023/09/14 00:15:40;;;;;;;2.60;2.40;;;23.40;99.90;;;;;;4939878;29;20618;-70
2023/09/14 00:18:06;;;;;;;2.50;2.30;;;23.40;99.90;;;;;;4972275;28;20222;-70
2023/09/14 00:20:31;;;;;;;2.90;2.17;;;23.40;99.90;;;;;;4949074;29;20193;-70
2023/09/14 00:22:58;;;;;;;2.33;2.13;;;23.40;99.90;;;;;;4963684;28;20235;-70
2023/09/14 00:25:25;;;;;;;2.95;2.05;;;23.30;99.90;;;;;;4975592;28;20217;-70
2023/09/14 00:27:53;;;;;;;2.13;2.03;;;23.40;99.90;;;;;;4958438;28;20198;-70
2023/09/14 00:30:20;;;;;;;2.10;1.88;;;23.40;99.90;;;;;;4967287;28;20229;-70
2023/09/14 00:32:47;;;;;;;2.38;2.17;;;23.30;99.90;;;;;;4958362;28;20216;-70
2023/09/14 00:35:14;;;;;;;2.70;2.42;;;23.40;99.90;;;;;;4958986;28;20203;-70
2023/09/14 00:37:41;;;;;;;2.30;2.17;;;23.40;99.90;;;;;;4962798;28;20243;-71
2023/09/14 00:40:10;;;;;;;2.22;2.03;;;23.40;99.90;;;;;;4958117;28;20186;-70
2023/09/14 00:42:45;;;;;;;1.98;1.83;;;23.40;99.90;;;;;;4939122;29;20794;-71
2023/09/14 00:45:17;;;;;;;2.00;1.90;;;23.30;99.90;;;;;;4973724;28;20189;-70
2023/09/14 00:47:50;;;;;;;1.88;1.77;;;23.30;99.90;;;;;;4958028;28;20272;-70
2023/09/14 00:50:17;;;;;;;2.05;1.95;;;23.40;99.90;;;;;;4972800;28;20228;-71
2023/09/14 00:53:00;;;;;;;1.75;1.65;;;23.40;99.90;;;;;;4965017;28;20194;-70
2023/09/14 00:55:28;;;;;;;2.03;1.92;;;23.30;99.90;;;;;;4941019;28;20226;-70
2023/09/14 00:57:56;;;;;;;1.80;1.70;;;23.30;99.90;;;;;;4941887;28;20784;-70
2023/09/14 01:00:22;;;;;;;2.05;1.85;;;23.30;99.90;;;;;;4934780;28;20223;-70
2023/09/14 01:02:52;;;;;;;2.00;1.90;;;23.40;99.90;;;;;;4949362;28;20187;-70
2023/09/14 01:05:18;;;;;;;2.13;1.80;;;23.30;99.90;;;;;;4957458;28;20193;-70
2023/09/14 01:07:44;;;;;;;1.90;1.80;;;23.30;99.90;;;;;;4938333;29;20268;-70
2023/09/14 01:10:10;;;;;;;1.67;1.58;;;23.30;99.90;;;;;;4957582;28;20197;-71
2023/09/14 01:12:37;;;;;;;2.00;1.90;;;23.30;99.90;;;;;;4947133;29;20199;-71
2023/09/14 01:15:19;;;;;;;1.75;1.65;;;23.30;99.90;;;;;;4939917;28;20202;-71
2023/09/14 01:18:14;;;;;;;1.80;1.70;;;23.30;99.90;;;;;;4962730;28;20221;-70
2023/09/14 01:21:26;;;;;;;2.13;2.03;;;23.30;99.90;;;;;;4937092;28;20194;-70
2023/09/14 01:24:07;;;;;;;1.80;1.70;;;23.30;99.90;;;;;;4971636;28;20194;-72
2023/09/14 01:26:34;;;;;;;1.85;1.75;;;23.30;99.90;;;;;;4935836;28;20217;-70
2023/09/14 01:29:04;;;;;;;1.63;1.52;;;23.30;99.90;;;;;;4954448;28;20223;-70
2023/09/14 01:31:31;;;;;;;1.75;1.65;;;23.30;99.90;;;;;;4951983;28;20243;-70
2023/09/14 01:33:58;;;;;;;1.88;1.77;;;23.30;99.90;;;;;;4941538;28;20277;-70
2023/09/14 01:36:55;;;;;;;2.30;1.80;;;23.30;99.90;;;;;;4963817;28;20565;-70
2023/09/14 01:39:25;;;;;;;2.05;1.85;;;23.30;99.90;;;;;;4941055;28;20739;-70
2023/09/14 01:41:55;;;;;;;2.03;1.92;;;23.30;99.90;;;;;;4941177;28;20305;-70
2023/09/14 01:44:25;;;;;;;2.10;1.88;;;23.30;99.90;;;;;;4957059;28;20188;-70
2023/09/14 01:46:51;;;;;;;1.83;1.73;;;23.30;99.90;;;;;;4947442;28;20205;-71
2023/09/14 01:49:17;;;;;;;1.90;1.80;;;23.30;99.90;;;;;;4953052;28;20194;-70
2023/09/14 01:51:43;;;;;;;1.80;1.70;;;23.30;99.90;;;;;;4940762;28;20680;-70
2023/09/14 01:54:09;;;;;;;1.98;1.88;;;23.30;99.90;;;;;;4940949;28;20205;-70
2023/09/14 01:56:36;;;;;;;2.08;1.98;;;23.30;99.90;;;;;;4956383;28;20221;-70
2023/09/14 01:59:02;;;;;;;2.10;2.00;;;23.30;99.90;;;;;;4962686;28;20299;-73
2023/09/14 02:01:28;;;;;;;2.00;1.90;;;23.30;99.90;;;;;;4956532;28;20198;-70
2023/09/14 02:03:54;;;;;;;2.20;2.00;;;23.30;99.90;;;;;;4946864;28;20192;-70
2023/09/14 02:06:20;;;;;;;2.13;2.00;;;23.30;99.90;;;;;;4956333;28;20271;-70
2023/09/14 02:08:46;;;;;;;2.40;2.20;;;23.30;99.90;;;;;;4952552;28;20185;-70
2023/09/14 02:11:13;;;;;;;2.13;2.03;;;23.30;99.90;;;;;;4962149;28;20201;-70
2023/09/14 02:13:43;;;;;;;2.28;2.08;;;23.30;99.90;;;;;;4956578;28;20204;-70
2023/09/14 02:16:09;;;;;;;2.20;2.00;;;23.30;99.90;;;;;;4945769;28;20217;-71
2023/09/14 02:18:35;;;;;;;2.42;2.20;;;23.30;99.90;;;;;;4944251;28;20696;-70
2023/09/14 02:21:02;;;;;;;2.08;1.98;;;23.30;99.90;;;;;;4973621;28;20206;-70
2023/09/14 02:23:27;;;;;;;2.58;2.38;;;23.30;99.90;;;;;;4954317;28;20182;-71
2023/09/14 02:25:53;;;;;;;3.10;2.80;;;23.30;99.90;;;;;;4962743;28;20679;-70
2023/09/14 02:28:20;;;;;;;3.42;2.22;;;23.30;99.90;;;;;;4974521;28;20213;-70
2023/09/14 02:30:46;;;;;;;2.22;2.03;;;23.30;99.90;;;;;;4956599;28;20576;-70
2023/09/14 02:33:12;;;;;;;2.47;2.28;;;23.30;99.90;;;;;;4955839;28;20194;-71
2023/09/14 02:35:46;;;;;;;2.35;2.17;;;23.30;99.90;;;;;;4956083;28;20360;-70
2023/09/14 02:38:11;;;;;;;2.20;2.10;;;23.30;99.90;;;;;;4940340;28;20213;-70
2023/09/14 02:40:37;;;;;;;2.60;2.40;;;23.30;99.90;;;;;;4949723;28;20180;-70
2023/09/14 02:43:03;;;;;;;2.80;2.60;;;23.30;99.90;;;;;;4943688;28;20202;-71
2023/09/14 02:45:29;;;;;;;2.50;2.30;;;23.30;99.90;;;;;;4955548;28;20213;-70
2023/09/14 02:47:54;;;;;;;2.97;2.78;;;23.30;99.90;;;;;;4946256;28;20666;-71
2023/09/14 02:50:20;;;;;;;2.67;2.45;;;23.30;99.90;;;;;;4944488;28;20194;-70
2023/09/14 02:52:46;;;;;;;2.58;2.38;;;23.30;99.90;;;;;;4973221;28;20193;-70
2023/09/14 02:55:12;;;;;;;2.42;2.22;;;23.30;99.90;;;;;;4939619;28;20559;-70
2023/09/14 02:57:38;;;;;;;2.80;2.50;;;23.30;99.90;;;;;;4955710;28;20303;-71
2023/09/14 03:00:12;;;;;;;2.72;2.33;;;23.30;99.90;;;;;;4951549;28;20241;-71
2023/09/14 03:02:40;;;;;;;3.03;2.83;;;23.30;99.90;;;;;;4947907;29;20272;-70
2023/09/14 03:05:06;;;;;;;2.92;2.63;;;23.30;99.90;;;;;;4952330;28;20280;-70
2023/09/14 03:07:32;;;;;;;2.70;2.50;;;23.30;99.90;;;;;;4948153;28;20204;-70
2023/09/14 03:09:58;;;;;;;2.75;2.55;;;23.30;99.90;;;;;;4938135;28;20190;-70
2023/09/14 03:12:24;;;;;;;3.05;2.85;;;23.30;99.90;;;;;;4948131;28;20288;-70
2023/09/14 03:14:50;;;;;;;2.83;2.60;;;23.30;99.90;;;;;;4939819;28;20626;-71
2023/09/14 03:17:15;;;;;;;3.28;2.97;;;23.30;99.90;;;;;;4960880;28;20213;-71
2023/09/14 03:19:42;;;;;;;2.80;2.60;;;23.30;99.90;;;;;;4955742;28;20217;-70
2023/09/14 03:22:08;;;;;;;3.20;2.90;;;23.30;99.90;;;;;;4939863;28;20219;-70
2023/09/14 03:24:35;;;;;;;2.95;2.70;;;23.30;99.90;;;;;;4931650;28;20204;-71
2023/09/14 03:27:00;;;;;;;3.10;2.90;;;23.20;99.90;;;;;;4955478;28;20214;-70
2023/09/14 03:29:27;;;;;;;3.00;2.80;;;23.30;99.90;;;;;;4939629;28;20189;-71
2023/09/14 03:31:54;;;;;;;2.70;2.50;;;23.30;99.90;;;;;;4955693;28;20190;-71
2023/09/14 03:34:20;;;;;;;2.70;2.50;;;23.30;99.90;;;;;;4955561;28;20197;-70
2023/09/14 03:36:45;;;;;;;2.90;2.70;;;23.30;99.90;;;;;;4947293;28;20701;-70
2023/09/14 03:39:12;;;;;;;2.75;2.55;;;23.30;99.90;;;;;;4955260;28;20220;-70
2023/09/14 03:41:38;;;;;;;2.78;2.50;;;23.30;99.90;;;;;;4962657;28;20193;-70
2023/09/14 03:44:04;;;;;;;2.97;2.78;;;23.30;99.90;;;;;;4968770;28;20218;-70
2023/09/14 03:46:30;;;;;;;3.00;2.80;;;23.30;99.90;;;;;;4963664;28;20722;-70
2023/09/14 03:48:56;;;;;;;3.05;2.75;;;23.30;99.90;;;;;;4948287;28;20249;-70
2023/09/14 03:51:22;;;;;;;3.10;2.90;;;23.30;99.90;;;;;;4943438;28;20228;-70
2023/09/14 03:53:48;;;;;;;2.85;2.65;;;23.30;99.90;;;;;;4959256;28;20193;-71
2023/09/14 03:56:14;;;;;;;2.78;2.58;;;23.30;99.90;;;;;;4959232;28;20213;-71
2023/09/14 03:58:42;;;;;;;3.50;3.30;;;23.20;99.90;;;;;;4963380;28;20236;-70
2023/09/14 04:01:09;;;;;;;3.13;2.92;;;23.30;99.90;;;;;;4963581;28;20229;-70
2023/09/14 04:03:34;;;;;;;2.78;2.58;;;23.20;99.90;;;;;;4963670;28;20182;-70
2023/09/14 04:06:00;;;;;;;3.38;3.17;;;23.30;99.90;;;;;;4980487;28;20205;-71
2023/09/14 04:08:26;;;;;;;3.25;2.95;;;23.30;99.90;;;;;;4958577;28;20194;-70
2023/09/14 04:10:52;;;;;;;2.75;2.55;;;23.30;99.90;;;;;;4952390;28;20197;-70
2023/09/14 04:13:32;;;;;;;3.60;3.30;;;23.30;99.90;;;;;;4939444;28;20311;-70
2023/09/14 04:16:05;;;;;;;3.00;2.70;;;23.20;99.90;;;;;;4946763;28;20307;-70
2023/09/14 04:18:35;;;;;;;2.90;2.70;;;23.30;99.90;;;;;;4960876;28;20261;-70
2023/09/14 04:21:02;;;;;;;2.75;2.55;;;23.20;99.90;;;;;;4960448;28;20189;-70
2023/09/14 04:23:29;;;;;;;2.90;2.70;;;23.20;99.90;;;;;;4974611;28;20182;-70
2023/09/14 04:25:55;;;;;;;2.90;2.70;;;23.30;99.90;;;;;;4942411;28;20689;-70
2023/09/14 04:28:21;;;;;;;3.30;3.10;;;23.30;99.90;;;;;;4951623;28;20221;-70
2023/09/14 04:31:01;;;;;;;3.38;3.08;;;23.30;99.90;;;;;;4945980;28;20185;-71
2023/09/14 04:33:28;;;;;;;2.90;2.70;;;23.30;99.90;;;;;;4956420;28;20194;-70
2023/09/14 04:36:05;;;;;;;3.22;2.83;;;23.30;99.90;;;;;;4950892;28;20231;-71
2023/09/14 04:38:32;;;;;;;2.83;2.63;;;23.20;99.90;;;;;;4958450;28;20209;-70
2023/09/14 04:41:04;;;;;;;3.30;3.08;;;23.30;99.90;;;;;;4950718;28;20287;-70
2023/09/14 04:43:32;;;;;;;2.95;2.75;;;23.20;99.90;;;;;;4942218;28;20665;-70
2023/09/14 04:46:00;;;;;;;3.03;2.75;;;23.30;99.90;;;;;;4941998;28;20236;-70
2023/09/14 04:48:26;;;;;;;3.22;2.92;;;23.20;99.90;;;;;;4950578;28;20200;-70
2023/09/14 04:50:59;;;;;;;3.22;2.92;;;23.20;99.90;;;;;;4958171;28;20190;-70
2023/09/14 04:53:26;;;;;;;2.78;2.58;;;23.20;99.90;;;;;;4962219;28;20198;-70
2023/09/14 04:55:53;;;;;;;3.15;2.92;;;23.20;99.90;;;;;;4951958;28;20701;-70
2023/09/14 04:58:19;;;;;;;3.95;3.30;;;23.20;99.90;;;;;;4961741;28;20689;-71
2023/09/14 05:00:49;;;;;;;3.67;3.38;;;23.20;99.90;;;;;;4960948;28;20207;-71
2023/09/14 05:03:19;;;;;;;3.60;3.30;;;23.20;99.90;;;;;;4965889;28;20205;-72
2023/09/14 05:05:52;;;;;;;3.60;3.30;;;23.20;99.90;;;;;;4941491;28;20238;-71
2023/09/14 05:08:18;;;;;;;3.55;3.25;;;23.20;99.90;;;;;;4952593;28;20213;-70
2023/09/14 05:10:44;;;;;;;4.18;3.45;;;23.20;99.90;;;;;;4942064;28;20193;-70
2023/09/14 05:13:10;;;;;;;3.47;3.17;;;23.20;99.90;;;;;;4973781;28;20202;-71
2023/09/14 05:15:36;;;;;;;3.92;3.63;;;23.20;99.90;;;;;;4963148;28;20217;-70
2023/09/14 05:18:02;;;;;;;3.20;3.00;;;23.20;99.90;;;;;;4959654;28;20562;-70
2023/09/14 05:20:28;;;;;;;3.80;3.50;;;23.20;99.90;;;;;;4957773;28;20190;-71
2023/09/14 05:22:54;;;;;;;3.42;3.13;;;23.20;99.90;;;;;;4957550;28;20705;-72
2023/09/14 05:25:20;;;;;;;3.05;2.83;;;23.20;99.90;;;;;;4941580;28;20193;-71
2023/09/14 05:27:46;;;;;;;3.22;3.03;;;23.20;99.90;;;;;;4961456;28;20190;-69
2023/09/14 05:30:12;;;;;;;3.58;3.28;;;23.20;99.90;;;;;;4957213;28;20193;-71
2023/09/14 05:32:41;;;;;;;3.60;3.30;;;23.20;99.90;;;;;;4944579;28;20196;-71
2023/09/14 05:35:07;;;;;;;4.82;3.95;;;23.20;99.90;;;;;;4948300;28;20189;-71
2023/09/14 05:37:34;;;;;;;3.55;3.25;;;23.10;99.90;;;;;;4948233;28;20185;-71
2023/09/14 05:40:00;;;;;;;4.10;3.75;;;23.20;99.90;;;;;;4948491;28;20192;-71
2023/09/14 05:42:26;;;;;;;3.35;3.05;;;23.20;99.90;;;;;;4941006;28;20190;-70
2023/09/14 05:44:51;;;;;;;3.72;3.33;;;23.20;99.90;;;;;;4939915;28;20193;-71
2023/09/14 05:47:17;;;;;;;3.00;2.80;;;23.20;99.90;;;;;;4946040;28;20284;-71
2023/09/14 05:49:45;;;;;;;3.25;2.95;;;23.20;99.90;;;;;;4939840;28;20201;-71
2023/09/14 05:52:11;;;;;;;3.65;3.35;;;23.10;99.90;;;;;;4940770;28;20186;-71
2023/09/14 05:54:37;;;;;;;3.50;3.20;;;23.20;99.90;;;;;;4937748;28;20183;-71
2023/09/14 05:57:03;;;;;;;3.65;3.35;;;23.20;99.90;;;;;;4961740;28;20553;-72
2023/09/14 05:59:30;;;;;;;3.47;3.17;;;23.20;99.90;;;;;;4956672;28;20213;-70
2023/09/14 06:01:56;;;;;;;3.30;3.00;;;23.20;99.90;;;;;;4940554;28;20182;-71
2023/09/14 06:04:21;;;;;;;3.03;2.83;;;23.20;99.90;;;;;;4955039;28;20192;-70
2023/09/14 06:06:47;;;;;;;3.42;3.00;;;23.20;99.90;;;;;;4946835;28;20224;-71
2023/09/14 06:09:13;;;;;;;3.22;3.00;;;23.20;99.90;;;;;;4956615;28;20697;-71
2023/09/14 06:11:40;;;;;;;3.33;3.13;;;23.20;99.90;;;;;;4943940;28;20202;-70
2023/09/14 06:14:06;;;;;;;3.10;2.90;;;23.20;99.90;;;;;;4973906;28;20245;-71
2023/09/14 06:16:32;;;;;;;3.50;3.20;;;23.20;99.90;;;;;;4943580;28;20218;-71
2023/09/14 06:18:58;;;;;;;3.08;2.83;;;23.10;99.90;;;;;;4940668;28;20217;-70
2023/09/14 06:21:24;;;;;;;3.38;3.08;;;23.20;99.90;;;;;;4937461;29;20197;-71
2023/09/14 06:23:50;;;;;;;3.47;3.17;;;23.20;99.90;;;;;;4955994;28;20190;-71
2023/09/14 06:26:16;;;;;;;3.72;3.42;;;23.20;99.90;;;;;;4973347;28;20284;-71
2023/09/14 06:28:41;;;;;;;3.22;2.92;;;23.10;99.90;;;;;;4940106;28;20216;-71
2023/09/14 06:31:07;;;;;;;4.60;4.05;;;23.20;99.90;;;;;;4948274;28;20197;-72
2023/09/14 06:33:33;;;;;;;3.78;3.47;;;23.20;99.90;;;;;;4945594;28;20189;-71
2023/09/14 06:35:58;;;;;;;3.60;3.30;;;23.20;99.90;;;;;;4975822;28;20209;-72
2023/09/14 06:38:24;;;;;;;3.60;3.30;;;23.20;99.90;;;;;;4956155;28;20301;-71
2023/09/14 06:40:50;;;;;;;3.20;3.00;;;23.20;99.90;;;;;;4973366;28;20182;-71
2023/09/14 06:43:16;;;;;;;3.38;3.08;;;23.10;99.90;;;;;;4944780;29;20182;-71
2023/09/14 06:45:42;;;;;;;3.47;3.17;;;23.20;99.90;;;;;;4954495;28;20202;-71
2023/09/14 06:48:08;;;;;;;4.13;3.72;;;23.20;99.90;;;;;;4943742;28;20186;-71
2023/09/14 06:50:33;;;;;;;3.47;3.17;;;23.20;99.90;;;;;;4973734;28;20226;-72
2023/09/14 06:52:59;;;;;;;3.30;3.10;;;23.20;99.90;;;;;;4963504;28;20219;-71
2023/09/14 06:55:25;;;;;;;3.80;3.40;;;23.20;99.90;;;;;;4956062;28;20213;-71
2023/09/14 06:57:50;;;;;;;3.95;2.95;;;23.20;99.90;;;;;;4955669;28;20221;-71
2023/09/14 07:00:20;;;;;;;3.30;2.97;;;23.20;99.90;;;;;;4975532;28;20201;-71
2023/09/14 07:02:52;;;;;;;3.08;2.83;;;23.20;99.90;;;;;;4955863;28;20204;-71
2023/09/14 07:05:18;;;;;;;3.08;2.83;;;23.20;99.90;;;;;;4934850;28;20201;-71
2023/09/14 07:07:43;;;;;;;2.78;2.58;;;23.20;99.90;;;;;;4971799;28;20189;-71
2023/09/14 07:10:10;;;;;;;3.20;3.00;;;23.20;99.90;;;;;;4955986;28;20197;-71
2023/09/14 07:12:36;;;;;;;2.67;2.47;;;23.20;99.90;;;;;;4958178;28;20194;-71
2023/09/14 07:15:03;;;;;;;3.35;3.15;;;23.20;99.90;;;;;;4954566;28;20220;-71
2023/09/14 07:17:29;;;;;;;3.13;2.90;;;23.20;99.90;;;;;;4955617;28;20182;-71
2023/09/14 07:19:54;;;;;;;3.65;3.35;;;23.20;99.90;;;;;;4942213;28;20189;-71
2023/09/14 07:22:20;;;;;;;3.22;2.92;;;23.20;99.90;;;;;;4955764;28;20189;-72
2023/09/14 07:24:47;;;;;;;3.05;2.85;;;23.20;99.90;;;;;;4972618;28;20186;-70
2023/09/14 07:27:16;;;;;;;3.13;2.92;;;23.20;99.90;;;;;;4943832;28;20201;-71
2023/09/14 07:29:42;;;;;;;3.53;3.22;;;23.20;99.90;;;;;;4972709;28;20182;-71
2023/09/14 07:32:09;;;;;;;3.38;3.08;;;23.20;99.90;;;;;;4943766;28;20556;-71
2023/09/14 07:34:34;;;;;;;3.30;3.00;;;23.20;99.90;;;;;;4939155;28;20194;-71
2023/09/14 07:37:00;;;;;;;3.38;3.15;;;23.30;99.90;;;;;;4955389;28;20217;-71
2023/09/14 07:39:26;;;;;;;3.83;3.53;;;23.20;99.90;;;;;;4955524;28;20224;-72
2023/09/14 07:41:55;;;;;;;3.10;2.90;;;23.30;99.90;;;;;;4940498;28;20196;-71
2023/09/14 07:44:21;;;;;;;3.20;3.00;;;23.30;99.90;;;;;;4943422;28;20178;-71
2023/09/14 07:46:47;;;;;;;3.40;2.90;;;23.20;99.90;;;;;;4955266;28;20755;-71
2023/09/14 07:49:12;;;;;;;3.45;3.15;;;23.30;99.90;;;;;;4939993;29;20194;-71
2023/09/14 07:51:38;;;;;;;3.45;3.15;;;23.30;99.90;;;;;;4961159;28;20189;-71
2023/09/14 07:54:04;;;;;;;3.63;3.33;;;23.30;99.90;;;;;;4962911;28;20198;-71
2023/09/14 07:56:30;;;;;;;3.45;3.15;;;23.30;99.90;;;;;;4946804;28;20727;-71
2023/09/14 07:58:56;;;;;;;3.00;2.80;;;23.20;99.90;;;;;;4939317;28;20245;-71
2023/09/14 08:01:23;;;;;;;3.00;2.72;;;23.20;99.90;;;;;;4945021;28;20264;-71
2023/09/14 08:03:49;;;;;;;2.97;2.78;;;23.30;99.90;;;;;;4954982;28;20216;-71
2023/09/14 08:06:18;;;;;;;3.05;2.85;;;23.30;99.90;;;;;;4972279;28;20205;-71
2023/09/14 08:08:45;;;;;;;3.25;3.05;;;23.30;99.90;;;;;;4944232;28;20678;-71
2023/09/14 08:11:11;;;;;;;3.40;3.10;;;23.30;99.90;;;;;;4939130;28;20189;-71
2023/09/14 08:13:37;;;;;;;3.00;2.80;;;23.30;99.90;;;;;;4939282;28;20637;-71
2023/09/14 08:16:05;;;;;;;2.85;2.65;;;23.30;99.90;;;;;;4953242;28;20747;-71
2023/09/14 08:18:31;;;;;;;3.22;2.90;;;23.30;99.90;;;;;;4971137;28;20241;-71
2023/09/14 08:20:57;;;;;;;3.28;3.08;;;23.30;99.90;;;;;;4955077;28;20248;-71
2023/09/14 08:23:22;;;;;;;3.20;3.00;;;23.30;99.90;;;;;;4939513;28;20190;-72
2023/09/14 08:25:48;;;;;;;3.28;2.97;;;23.30;99.90;;;;;;4942419;28;20210;-72
2023/09/14 08:28:17;;;;;;;2.53;2.33;;;23.30;99.90;;;;;;4964607;28;20196;-71
2023/09/14 08:30:44;;;;;;;3.25;3.05;;;23.30;99.90;;;;;;4943815;28;20181;-71
2023/09/14 08:33:11;;;;;;;3.08;2.88;;;23.30;99.90;;;;;;4943828;28;20248;-71
2023/09/14 08:35:37;;;;;;;3.55;3.25;;;23.30;99.90;;;;;;4944886;28;20224;-71
2023/09/14 08:38:07;;;;;;;3.13;2.92;;;23.30;99.90;;;;;;4957953;28;20237;-71
2023/09/14 08:40:34;;;;;;;3.50;3.20;;;23.30;99.90;;;;;;4958039;28;20185;-71
2023/09/14 08:43:01;;;;;;;3.03;2.83;;;23.30;99.90;;;;;;4975328;28;20212;-71
2023/09/14 08:45:32;;;;;;;3.45;3.15;;;23.30;99.80;;;;;;4944390;28;20209;-71
2023/09/14 08:48:02;;;;;;;3.20;3.00;;;23.30;99.80;;;;;;4948831;28;20197;-71
2023/09/14 08:50:33;;;;;;;4.03;3.38;;;23.30;99.70;;;;;;4958079;28;20196;-71
2023/09/14 08:52:59;;;;;;;3.10;2.90;;;23.30;99.70;;;;;;4976223;28;20189;-71
2023/09/14 08:55:35;;;;;;;2.83;2.63;;;23.30;99.70;;;;;;4958681;28;20209;-71
2023/09/14 08:58:02;;;;;;;3.08;2.88;;;23.30;99.50;;;;;;4957585;28;20279;-71
2023/09/14 09:00:29;;;;;;;2.78;2.58;;;23.30;99.60;;;;;;4975126;28;20204;-71
2023/09/14 09:02:57;;;;;;;3.35;3.05;;;23.30;99.50;;;;;;4958799;28;20190;-71
2023/09/14 09:05:25;;;;;;;2.88;2.67;;;23.30;99.50;;;;;;4975989;28;20193;-71
2023/09/14 09:07:54;;;;;;;3.05;2.78;;;23.30;99.50;;;;;;4941497;28;20204;-71
2023/09/14 09:10:22;;;;;;;3.10;2.80;;;23.30;99.60;;;;;;4958434;28;20189;-71
2023/09/14 09:12:52;;;;;;;3.10;2.90;;;23.30;99.70;;;;;;4958087;28;20281;-71
2023/09/14 09:15:18;;;;;;;3.08;2.78;;;23.30;99.70;;;;;;4950867;28;20186;-71
2023/09/14 09:17:44;;;;;;;3.30;3.10;;;23.30;99.60;;;;;;4975559;28;20205;-71
2023/09/14 09:20:16;;;;;;;3.33;3.03;;;23.40;99.70;;;;;;4942574;28;20194;-71
2023/09/14 09:22:46;;;;;;;3.60;3.30;;;23.40;99.70;;;;;;4957700;28;20197;-72
2023/09/14 09:25:13;;;;;;;3.80;3.50;;;23.40;99.70;;;;;;4974243;28;20641;-71
2023/09/14 09:27:39;;;;;;;3.60;3.30;;;23.40;99.60;;;;;;4957462;28;20196;-71
2023/09/14 09:30:08;;;;;;;3.40;3.20;;;23.40;99.70;;;;;;4949132;28;20676;-72
2023/09/14 09:32:38;;;;;;;3.40;3.10;;;23.30;99.40;;;;;;4974651;28;20190;-71
2023/09/14 09:35:31;;;;;;;3.15;2.95;;;23.40;99.40;;;;;;4957302;28;20212;-72
2023/09/14 09:38:11;;;;;;;3.35;2.80;;;23.40;99.40;;;;;;4937314;28;20672;-72
2023/09/14 09:40:42;;;;;;;3.42;3.08;;;23.40;99.40;;;;;;4942829;28;20259;-71
2023/09/14 09:43:09;;;;;;;3.15;2.95;;;23.30;99.40;;;;;;4942080;28;20186;-71
2023/09/14 09:45:40;;;;;;;3.88;3.28;;;23.40;99.50;;;;;;4956976;28;20212;-71
2023/09/14 09:48:09;;;;;;;3.53;3.22;;;23.30;99.50;;;;;;4956945;28;20911;-70
2023/09/14 09:50:36;;;;;;;2.95;2.75;;;23.40;99.50;;;;;;4941120;28;20197;-71
2023/09/14 09:53:02;;;;;;;3.00;2.80;;;23.40;99.20;;;;;;4957053;28;20269;-71
2023/09/14 09:55:30;;;;;;;2.92;2.72;;;23.30;99.40;;;;;;4974003;28;20233;-71
2023/09/14 09:57:58;;;;;;;3.00;2.80;;;23.40;99.20;;;;;;4948915;28;20700;-71
2023/09/14 10:00:41;;;;;;;3.10;2.90;;;23.40;99.20;;;;;;4957104;28;20205;-71
2023/09/14 10:03:07;;;;;;;3.50;3.20;;;23.30;99.10;;;;;;4974190;28;20185;-71
2023/09/14 10:05:38;;;;;;;3.47;3.17;;;23.30;99.10;;;;;;4956694;28;20284;-71
2023/09/14 10:08:15;;;;;;;3.25;2.95;;;23.30;98.80;;;;;;4946724;28;20194;-71
2023/09/14 10:10:50;;;;;;;3.33;3.13;;;23.40;98.80;;;;;;4956876;28;20272;-71
2023/09/14 10:13:25;;;;;;;3.05;2.85;;;23.40;98.60;;;;;;4948919;28;20661;-71
2023/09/14 10:15:53;;;;;;;2.78;2.58;;;23.40;98.80;;;;;;4948027;28;20223;-71
2023/09/14 10:18:22;;;;;;;3.20;3.00;;;23.40;98.80;;;;;;4956598;28;20216;-71
2023/09/14 10:20:53;;;;;;;3.40;3.10;;;23.40;98.70;;;;;;4956377;28;20193;-71
2023/09/14 10:23:21;;;;;;;2.85;2.65;;;23.40;98.90;;;;;;4949274;28;20236;-72
2023/09/14 10:25:50;;;;;;;3.40;3.10;;;23.40;98.80;;;;;;4956067;28;20217;-72
2023/09/14 10:28:20;;;;;;;2.92;2.72;;;23.40;98.80;;;;;;4951919;28;20197;-70
2023/09/14 10:30:46;;;;;;;2.92;2.72;;;23.40;98.70;;;;;;4960007;28;20201;-72
2023/09/14 10:33:14;;;;;;;2.60;2.40;;;23.40;98.60;;;;;;4981349;28;20190;-71
2023/09/14 10:35:42;;;;;;;3.00;2.80;;;23.40;98.50;;;;;;4956052;28;20210;-71
2023/09/14 10:38:09;;;;;;;3.13;2.83;;;23.40;98.50;;;;;;4964068;28;20307;-72
2023/09/14 10:40:38;;;;;;;3.00;2.80;;;23.40;98.50;;;;;;4956496;28;20184;-71
2023/09/14 10:43:05;;;;;;;2.92;2.72;;;23.40;98.20;;;;;;4963823;28;20247;-72
2023/09/14 10:45:40;;;;;;;2.80;2.60;;;23.40;98.40;;;;;;4955713;28;20210;-71
2023/09/14 10:48:15;;;;;;;2.72;2.53;;;23.40;98.40;;;;;;4955875;28;20197;-71
2023/09/14 10:50:41;;;;;;;2.97;2.72;;;23.40;98.80;;;;;;4971900;28;20295;-71
2023/09/14 10:53:08;;;;;;;3.00;2.72;;;23.40;98.00;;;;;;4936101;28;20288;-72
2023/09/14 10:55:38;;;;;;;2.78;2.58;;;23.40;98.10;;;;;;4947056;29;20289;-72
2023/09/14 10:58:04;;;;;;;2.97;2.78;;;23.40;98.20;;;;;;4971475;28;20220;-72
2023/09/14 11:01:36;;;;;;;3.00;2.70;;;23.40;98.00;;;;;;4955540;28;20197;-72
2023/09/14 11:04:18;;;;;;;2.72;2.53;;;23.40;97.70;;;;;;4945852;28;20202;-71
2023/09/14 11:06:55;;;;;;;3.00;2.80;;;23.50;98.00;;;;;;4931599;28;20229;-72
2023/09/14 11:09:23;;;;;;;2.97;2.78;;;23.40;97.60;;;;;;4969966;28;20272;-71
2023/09/14 11:11:50;;;;;;;2.85;2.65;;;23.50;97.50;;;;;;4955064;28;20186;-71
2023/09/14 11:14:20;;;;;;;2.70;2.50;;;23.40;97.50;;;;;;4967471;28;20228;-71
2023/09/14 11:16:51;;;;;;;2.80;2.60;;;23.40;97.20;;;;;;4947786;28;20255;-72
2023/09/14 11:19:32;;;;;;;3.63;2.65;;;23.40;97.60;;;;;;4986475;28;20221;-71
2023/09/14 11:22:03;;;;;;;2.75;2.55;;;23.40;97.10;;;;;;4940009;28;20190;-72
2023/09/14 11:24:36;;;;;;;2.80;2.60;;;23.50;97.10;;;;;;4952174;28;20249;-71
2023/09/14 11:27:02;;;;;;;2.80;2.60;;;23.50;96.80;;;;;;4945894;28;20202;-71
2023/09/14 11:29:31;;;;;;;2.50;2.30;;;23.40;97.10;;;;;;4955787;28;20272;-71
2023/09/14 11:32:02;;;;;;;2.70;2.50;;;23.40;96.90;;;;;;4971933;28;20193;-71
2023/09/14 11:34:32;;;;;;;2.80;2.60;;;23.50;97.00;;;;;;4955557;28;20190;-72
2023/09/14 11:37:00;;;;;;;3.30;3.00;;;23.40;96.70;;;;;;4972653;28;20225;-71
2023/09/14 11:39:28;;;;;;;2.78;2.58;;;23.50;96.90;;;;;;4955188;28;20214;-71
2023/09/14 11:41:57;;;;;;;3.97;2.80;;;23.50;97.20;;;;;;4962820;28;20192;-71
2023/09/14 11:44:24;;;;;;;2.55;2.35;;;23.40;97.10;;;;;;4942860;29;20197;-71
2023/09/14 11:46:51;;;;;;;2.90;2.70;;;23.40;97.20;;;;;;4952224;28;20214;-72
2023/09/14 11:49:20;;;;;;;2.70;2.50;;;23.50;97.20;;;;;;4971808;28;20186;-70
2023/09/14 11:51:47;;;;;;;2.92;2.72;;;23.50;97.30;;;;;;4943510;28;20199;-72
2023/09/14 11:54:13;;;;;;;3.25;2.53;;;23.40;97.30;;;;;;4955628;28;20225;-71
2023/09/14 11:56:39;;;;;;;2.92;2.40;;;23.50;97.40;;;;;;4966982;28;20292;-72
2023/09/14 11:59:05;;;;;;;2.90;2.70;;;23.50;97.60;;;;;;4945808;28;20248;-71
2023/09/14 12:01:34;;;;;;;3.83;2.60;;;23.50;97.00;;;;;;4945771;28;20285;-72
2023/09/14 12:04:04;;;;;;;2.67;2.47;;;23.50;97.00;;;;;;4951676;28;20193;-71
2023/09/14 12:06:31;;;;;;;2.88;2.67;;;23.40;96.80;;;;;;4958964;28;20221;-71
2023/09/14 12:08:58;;;;;;;2.47;2.28;;;23.50;97.50;;;;;;4958698;28;20252;-71
2023/09/14 12:11:37;;;;;;;2.75;2.55;;;23.40;97.50;;;;;;4958837;28;20224;-71
2023/09/14 12:14:03;;;;;;;2.58;2.20;;;23.40;97.30;;;;;;4942907;28;20596;-71
2023/09/14 12:16:29;;;;;;;2.70;2.50;;;23.40;97.00;;;;;;4958493;28;20317;-71
2023/09/14 12:18:55;;;;;;;2.40;2.20;;;23.50;96.30;;;;;;4953891;28;20221;-72
2023/09/14 12:21:24;;;;;;;2.25;2.10;;;23.50;96.00;;;;;;4959633;28;20210;-71
2023/09/14 12:23:52;;;;;;;2.55;2.38;;;23.50;96.40;;;;;;4958512;28;20190;-71
2023/09/14 12:26:21;;;;;;;2.60;2.40;;;23.50;96.40;;;;;;4957138;28;20220;-71
2023/09/14 12:28:55;;;;;;;3.13;2.50;;;23.50;96.60;;;;;;4939244;29;20249;-71
2023/09/14 12:31:24;;;;;;;2.50;2.28;;;23.50;96.80;;;;;;4942898;28;20263;-72
2023/09/14 12:33:51;;;;;;;2.25;2.15;;;23.50;96.40;;;;;;4942264;28;20252;-71
2023/09/14 12:36:20;;;;;;;2.78;2.53;;;23.50;96.60;;;;;;4981709;28;20305;-71
2023/09/14 12:38:48;;;;;;;2.38;2.28;;;23.50;96.40;;;;;;4957312;28;20232;-71
2023/09/14 12:41:14;;;;;;;2.65;2.45;;;23.50;96.30;;;;;;4947701;28;20198;-71
2023/09/14 12:43:42;;;;;;;2.50;2.30;;;23.50;96.20;;;;;;4975429;28;20277;-71
2023/09/14 12:46:07;;;;;;;2.42;2.22;;;23.50;96.00;;;;;;4964435;28;20241;-72
2023/09/14 12:48:33;;;;;;;2.95;2.58;;;23.50;95.80;;;;;;4959483;28;20231;-71
2023/09/14 12:51:05;;;;;;;2.20;2.00;;;23.50;95.90;;;;;;4944300;28;20608;-72
2023/09/14 12:53:40;;;;;;;3.17;2.35;;;23.50;95.90;;;;;;4952119;28;20280;-71